sensor_id;sensor_type;location;lat;lon;timestamp;temperature;humidity
36292;DHT22;22327;51.208;6.418;2023-06-10T00:01:44;23.50;90.80
36292;DHT22;22327;51.208;6.418;2023-06-10T00:04:47;23.40;90.70
36292;DHT22;22327;51.208;6.418;2023-06-10T00:07:48;23.40;90.70
36292;DHT22;22327;51.208;6.418;2023-06-10T00:10:50;23.30;91.00
36292;DHT22;22327;51.208;6.418;2023-06-10T00:13:50;23.30;90.60
36292;DHT22;22327;51.208;6.418;2023-06-10T00:16:51;23.30;91.10
36292;DHT22;22327;51.208;6.418;2023-06-10T00:19:52;23.20;90.90
36292;DHT22;22327;51.208;6.418;2023-06-10T00:22:53;23.20;90.80
36292;DHT22;22327;51.208;6.418;2023-06-10T00:25:53;23.10;91.10
36292;DHT22;22327;51.208;6.418;2023-06-10T00:28:54;23.10;91.30
36292;DHT22;22327;51.208;6.418;2023-06-10T00:31:54;23.00;91.60
36292;DHT22;22327;51.208;6.418;2023-06-10T00:34:57;23.00;92.00
36292;DHT22;22327;51.208;6.418;2023-06-10T00:37:58;23.00;92.20
36292;DHT22;22327;51.208;6.418;2023-06-10T00:40:58;22.90;92.20
36292;DHT22;22327;51.208;6.418;2023-06-10T00:43:59;22.90;92.20
36292;DHT22;22327;51.208;6.418;2023-06-10T00:47:00;22.80;92.40
36292;DHT22;22327;51.208;6.418;2023-06-10T00:50:01;22.70;91.90
36292;DHT22;22327;51.208;6.418;2023-06-10T00:53:02;22.60;92.10
36292;DHT22;22327;51.208;6.418;2023-06-10T00:56:03;22.60;92.20
36292;DHT22;22327;51.208;6.418;2023-06-10T00:59:04;22.40;91.90
36292;DHT22;22327;51.208;6.418;2023-06-10T01:02:05;22.40;91.70
36292;DHT22;22327;51.208;6.418;2023-06-10T01:05:05;22.30;92.20
36292;DHT22;22327;51.208;6.418;2023-06-10T01:08:21;22.30;92.20
36292;DHT22;22327;51.208;6.418;2023-06-10T01:11:33;22.30;91.90
36292;DHT22;22327;51.208;6.418;2023-06-10T01:14:36;22.30;91.90
36292;DHT22;22327;51.208;6.418;2023-06-10T01:17:58;22.30;91.70
36292;DHT22;22327;51.208;6.418;2023-06-10T01:20:59;22.30;91.00
36292;DHT22;22327;51.208;6.418;2023-06-10T01:24:00;22.30;91.40
36292;DHT22;22327;51.208;6.418;2023-06-10T01:27:03;22.20;91.30
36292;DHT22;22327;51.208;6.418;2023-06-10T01:30:15;22.10;91.10
36292;DHT22;22327;51.208;6.418;2023-06-10T01:33:23;22.10;91.00
36292;DHT22;22327;51.208;6.418;2023-06-10T01:36:26;22.00;91.10
36292;DHT22;22327;51.208;6.418;2023-06-10T01:39:27;21.90;91.10
36292;DHT22;22327;51.208;6.418;2023-06-10T01:42:28;21.90;91.10
36292;DHT22;22327;51.208;6.418;2023-06-10T01:45:29;21.90;90.90
36292;DHT22;22327;51.208;6.418;2023-06-10T01:48:30;21.80;90.70
36292;DHT22;22327;51.208;6.418;2023-06-10T01:51:30;21.70;90.70
36292;DHT22;22327;51.208;6.418;2023-06-10T01:54:32;21.70;90.80
36292;DHT22;22327;51.208;6.418;2023-06-10T01:57:34;21.70;90.80
36292;DHT22;22327;51.208;6.418;2023-06-10T02:00:35;21.60;90.70
36292;DHT22;22327;51.208;6.418;2023-06-10T02:03:35;21.60;90.80
36292;DHT22;22327;51.208;6.418;2023-06-10T02:06:36;21.50;90.80
36292;DHT22;22327;51.208;6.418;2023-06-10T02:09:38;21.50;90.60
36292;DHT22;22327;51.208;6.418;2023-06-10T02:12:38;21.50;90.50
36292;DHT22;22327;51.208;6.418;2023-06-10T02:15:39;21.50;90.50
36292;DHT22;22327;51.208;6.418;2023-06-10T02:18:41;21.50;90.50
36292;DHT22;22327;51.208;6.418;2023-06-10T02:21:43;21.50;90.60
36292;DHT22;22327;51.208;6.418;2023-06-10T02:24:43;21.40;90.50
36292;DHT22;22327;51.208;6.418;2023-06-10T02:27:44;21.40;90.70
36292;DHT22;22327;51.208;6.418;2023-06-10T02:30:45;21.30;91.00
36292;DHT22;22327;51.208;6.418;2023-06-10T02:33:47;21.30;90.60
36292;DHT22;22327;51.208;6.418;2023-06-10T02:36:47;21.40;90.70
36292;DHT22;22327;51.208;6.418;2023-06-10T02:39:51;21.40;90.60
36292;DHT22;22327;51.208;6.418;2023-06-10T02:42:52;21.30;90.50
36292;DHT22;22327;51.208;6.418;2023-06-10T02:45:52;21.30;90.60
36292;DHT22;22327;51.208;6.418;2023-06-10T02:48:53;21.30;90.60
36292;DHT22;22327;51.208;6.418;2023-06-10T02:51:53;21.30;90.60
36292;DHT22;22327;51.208;6.418;2023-06-10T02:54:54;21.20;90.50
36292;DHT22;22327;51.208;6.418;2023-06-10T02:57:55;21.20;90.60
36292;DHT22;22327;51.208;6.418;2023-06-10T03:00:56;21.20;90.50
36292;DHT22;22327;51.208;6.418;2023-06-10T03:03:56;21.20;90.60
36292;DHT22;22327;51.208;6.418;2023-06-10T03:06:57;21.20;90.60
36292;DHT22;22327;51.208;6.418;2023-06-10T03:09:57;21.20;90.60
36292;DHT22;22327;51.208;6.418;2023-06-10T03:12:58;21.20;90.70
36292;DHT22;22327;51.208;6.418;2023-06-10T03:15:58;21.20;91.00
36292;DHT22;22327;51.208;6.418;2023-06-10T03:18:59;21.20;90.70
36292;DHT22;22327;51.208;6.418;2023-06-10T03:22:10;21.10;90.70
36292;DHT22;22327;51.208;6.418;2023-06-10T03:25:11;21.10;90.70
36292;DHT22;22327;51.208;6.418;2023-06-10T03:28:14;21.10;90.80
36292;DHT22;22327;51.208;6.418;2023-06-10T03:31:14;21.10;90.80
36292;DHT22;22327;51.208;6.418;2023-06-10T03:34:17;21.10;90.90
36292;DHT22;22327;51.208;6.418;2023-06-10T03:37:17;21.10;91.00
36292;DHT22;22327;51.208;6.418;2023-06-10T03:40:18;21.10;91.10
36292;DHT22;22327;51.208;6.418;2023-06-10T03:43:18;21.10;91.10
36292;DHT22;22327;51.208;6.418;2023-06-10T03:46:19;21.20;91.00
36292;DHT22;22327;51.208;6.418;2023-06-10T03:49:19;21.20;90.90
36292;DHT22;22327;51.208;6.418;2023-06-10T03:52:20;21.20;90.90
36292;DHT22;22327;51.208;6.418;2023-06-10T03:55:20;21.30;91.20
36292;DHT22;22327;51.208;6.418;2023-06-10T03:58:22;21.40;90.90
36292;DHT22;22327;51.208;6.418;2023-06-10T04:01:22;21.60;90.90
36292;DHT22;22327;51.208;6.418;2023-06-10T04:04:23;21.90;91.10
36292;DHT22;22327;51.208;6.418;2023-06-10T04:07:24;22.40;90.70
36292;DHT22;22327;51.208;6.418;2023-06-10T04:10:25;22.90;90.20
36292;DHT22;22327;51.208;6.418;2023-06-10T04:13:26;23.30;89.40
36292;DHT22;22327;51.208;6.418;2023-06-10T04:16:27;23.70;87.80
36292;DHT22;22327;51.208;6.418;2023-06-10T04:19:27;24.10;85.90
36292;DHT22;22327;51.208;6.418;2023-06-10T04:22:28;24.60;83.00
36292;DHT22;22327;51.208;6.418;2023-06-10T04:25:29;24.90;81.10
36292;DHT22;22327;51.208;6.418;2023-06-10T04:28:30;25.20;79.70
36292;DHT22;22327;51.208;6.418;2023-06-10T04:31:30;25.60;78.80
36292;DHT22;22327;51.208;6.418;2023-06-10T04:34:36;26.10;78.20
36292;DHT22;22327;51.208;6.418;2023-06-10T04:37:39;26.60;76.20
36292;DHT22;22327;51.208;6.418;2023-06-10T04:40:40;27.20;72.30
36292;DHT22;22327;51.208;6.418;2023-06-10T04:43:40;27.50;71.30
36292;DHT22;22327;51.208;6.418;2023-06-10T04:46:41;27.80;70.50
36292;DHT22;22327;51.208;6.418;2023-06-10T04:49:42;28.10;66.90
36292;DHT22;22327;51.208;6.418;2023-06-10T04:52:42;28.30;65.70
36292;DHT22;22327;51.208;6.418;2023-06-10T04:55:43;28.60;65.10
36292;DHT22;22327;51.208;6.418;2023-06-10T04:58:44;28.90;61.50
36292;DHT22;22327;51.208;6.418;2023-06-10T05:01:44;29.00;60.30
36292;DHT22;22327;51.208;6.418;2023-06-10T05:04:45;29.00;59.90
36292;DHT22;22327;51.208;6.418;2023-06-10T05:07:46;29.20;58.90
36292;DHT22;22327;51.208;6.418;2023-06-10T05:10:46;29.30;58.40
36292;DHT22;22327;51.208;6.418;2023-06-10T05:13:47;29.40;57.60
36292;DHT22;22327;51.208;6.418;2023-06-10T05:16:48;29.50;57.00
36292;DHT22;22327;51.208;6.418;2023-06-10T05:19:49;29.70;57.20
36292;DHT22;22327;51.208;6.418;2023-06-10T05:22:49;30.30;55.50
36292;DHT22;22327;51.208;6.418;2023-06-10T05:25:50;30.50;54.30
36292;DHT22;22327;51.208;6.418;2023-06-10T05:28:50;30.70;53.10
36292;DHT22;22327;51.208;6.418;2023-06-10T05:31:51;30.80;53.00
36292;DHT22;22327;51.208;6.418;2023-06-10T05:34:51;30.80;52.20
36292;DHT22;22327;51.208;6.418;2023-06-10T05:37:52;30.90;52.00
36292;DHT22;22327;51.208;6.418;2023-06-10T05:40:52;31.10;51.80
36292;DHT22;22327;51.208;6.418;2023-06-10T05:43:53;31.50;51.40
36292;DHT22;22327;51.208;6.418;2023-06-10T05:46:53;31.90;50.20
36292;DHT22;22327;51.208;6.418;2023-06-10T05:49:54;32.30;50.40
36292;DHT22;22327;51.208;6.418;2023-06-10T05:52:55;32.60;48.20
36292;DHT22;22327;51.208;6.418;2023-06-10T05:55:55;32.90;47.80
36292;DHT22;22327;51.208;6.418;2023-06-10T05:58:57;32.90;46.80
36292;DHT22;22327;51.208;6.418;2023-06-10T06:01:58;33.20;46.20
36292;DHT22;22327;51.208;6.418;2023-06-10T06:04:59;33.60;46.40
36292;DHT22;22327;51.208;6.418;2023-06-10T06:07:59;33.80;45.00
36292;DHT22;22327;51.208;6.418;2023-06-10T06:11:00;34.00;45.70
36292;DHT22;22327;51.208;6.418;2023-06-10T06:14:00;34.50;44.50
36292;DHT22;22327;51.208;6.418;2023-06-10T06:17:01;34.90;42.80
36292;DHT22;22327;51.208;6.418;2023-06-10T06:20:02;34.70;42.20
36292;DHT22;22327;51.208;6.418;2023-06-10T06:23:03;34.40;42.40
36292;DHT22;22327;51.208;6.418;2023-06-10T06:26:04;34.60;41.90
36292;DHT22;22327;51.208;6.418;2023-06-10T06:29:04;34.70;41.90
36292;DHT22;22327;51.208;6.418;2023-06-10T06:32:05;35.10;42.00
36292;DHT22;22327;51.208;6.418;2023-06-10T06:35:06;35.70;41.20
36292;DHT22;22327;51.208;6.418;2023-06-10T06:38:08;36.20;39.20
36292;DHT22;22327;51.208;6.418;2023-06-10T06:41:08;36.40;38.80
36292;DHT22;22327;51.208;6.418;2023-06-10T06:44:09;36.20;38.30
36292;DHT22;22327;51.208;6.418;2023-06-10T06:47:09;36.10;38.00
36292;DHT22;22327;51.208;6.418;2023-06-10T06:50:10;36.40;38.40
36292;DHT22;22327;51.208;6.418;2023-06-10T06:53:10;37.10;37.20
36292;DHT22;22327;51.208;6.418;2023-06-10T06:56:11;37.20;36.40
36292;DHT22;22327;51.208;6.418;2023-06-10T06:59:12;37.10;35.30
36292;DHT22;22327;51.208;6.418;2023-06-10T07:02:14;36.90;34.60
36292;DHT22;22327;51.208;6.418;2023-06-10T07:05:14;36.90;35.10
36292;DHT22;22327;51.208;6.418;2023-06-10T07:08:15;37.00;35.10
36292;DHT22;22327;51.208;6.418;2023-06-10T07:11:15;37.10;34.80
36292;DHT22;22327;51.208;6.418;2023-06-10T07:14:17;37.20;34.80
36292;DHT22;22327;51.208;6.418;2023-06-10T07:17:18;37.40;34.20
36292;DHT22;22327;51.208;6.418;2023-06-10T07:20:19;37.60;33.80
36292;DHT22;22327;51.208;6.418;2023-06-10T07:23:19;37.80;33.00
36292;DHT22;22327;51.208;6.418;2023-06-10T07:26:21;37.70;32.90
36292;DHT22;22327;51.208;6.418;2023-06-10T07:29:22;38.00;33.20
36292;DHT22;22327;51.208;6.418;2023-06-10T07:32:22;38.20;32.70
36292;DHT22;22327;51.208;6.418;2023-06-10T07:35:24;38.70;31.40
36292;DHT22;22327;51.208;6.418;2023-06-10T07:38:25;39.10;30.60
36292;DHT22;22327;51.208;6.418;2023-06-10T07:41:26;39.40;30.80
36292;DHT22;22327;51.208;6.418;2023-06-10T07:44:26;39.60;30.00
36292;DHT22;22327;51.208;6.418;2023-06-10T07:47:27;39.70;29.80
36292;DHT22;22327;51.208;6.418;2023-06-10T07:50:27;40.00;29.70
36292;DHT22;22327;51.208;6.418;2023-06-10T07:53:28;40.20;28.80
36292;DHT22;22327;51.208;6.418;2023-06-10T07:56:28;39.80;29.00
36292;DHT22;22327;51.208;6.418;2023-06-10T07:59:29;40.20;29.00
36292;DHT22;22327;51.208;6.418;2023-06-10T08:02:30;40.20;28.30
36292;DHT22;22327;51.208;6.418;2023-06-10T08:05:30;40.80;28.70
36292;DHT22;22327;51.208;6.418;2023-06-10T08:08:31;42.20;29.50
36292;DHT22;22327;51.208;6.418;2023-06-10T08:11:32;43.10;26.50
36292;DHT22;22327;51.208;6.418;2023-06-10T08:14:32;43.50;25.70
36292;DHT22;22327;51.208;6.418;2023-06-10T08:17:33;42.80;26.00
36292;DHT22;22327;51.208;6.418;2023-06-10T08:20:33;42.80;26.80
36292;DHT22;22327;51.208;6.418;2023-06-10T08:23:34;43.10;25.90
36292;DHT22;22327;51.208;6.418;2023-06-10T08:26:34;43.00;26.20
36292;DHT22;22327;51.208;6.418;2023-06-10T08:29:35;43.40;25.70
36292;DHT22;22327;51.208;6.418;2023-06-10T08:32:36;43.30;26.00
36292;DHT22;22327;51.208;6.418;2023-06-10T08:35:36;44.00;26.10
36292;DHT22;22327;51.208;6.418;2023-06-10T08:38:38;44.50;24.80
36292;DHT22;22327;51.208;6.418;2023-06-10T08:41:43;44.20;25.00
36292;DHT22;22327;51.208;6.418;2023-06-10T08:44:46;44.50;25.00
36292;DHT22;22327;51.208;6.418;2023-06-10T08:47:49;44.40;24.60
36292;DHT22;22327;51.208;6.418;2023-06-10T08:50:52;44.60;24.40
36292;DHT22;22327;51.208;6.418;2023-06-10T08:54:04;44.60;24.60
36292;DHT22;22327;51.208;6.418;2023-06-10T08:57:06;44.40;23.90
36292;DHT22;22327;51.208;6.418;2023-06-10T09:00:07;44.40;24.10
36292;DHT22;22327;51.208;6.418;2023-06-10T09:03:09;44.40;24.10
36292;DHT22;22327;51.208;6.418;2023-06-10T09:06:09;43.80;24.20
36292;DHT22;22327;51.208;6.418;2023-06-10T09:09:12;43.70;25.10
36292;DHT22;22327;51.208;6.418;2023-06-10T09:12:14;43.90;24.60
36292;DHT22;22327;51.208;6.418;2023-06-10T09:15:15;44.40;24.10
36292;DHT22;22327;51.208;6.418;2023-06-10T09:18:17;44.50;24.20
36292;DHT22;22327;51.208;6.418;2023-06-10T09:21:18;44.50;24.00
36292;DHT22;22327;51.208;6.418;2023-06-10T09:24:18;44.20;24.30
36292;DHT22;22327;51.208;6.418;2023-06-10T09:27:19;44.50;24.00
36292;DHT22;22327;51.208;6.418;2023-06-10T09:30:33;44.40;24.30
36292;DHT22;22327;51.208;6.418;2023-06-10T09:33:37;44.30;23.90
36292;DHT22;22327;51.208;6.418;2023-06-10T09:36:40;43.80;24.40
36292;DHT22;22327;51.208;6.418;2023-06-10T09:39:41;43.90;24.40
36292;DHT22;22327;51.208;6.418;2023-06-10T09:42:42;43.70;24.80
36292;DHT22;22327;51.208;6.418;2023-06-10T09:45:43;43.00;25.20
36292;DHT22;22327;51.208;6.418;2023-06-10T09:48:45;42.60;25.30
36292;DHT22;22327;51.208;6.418;2023-06-10T09:51:54;42.40;25.20
36292;DHT22;22327;51.208;6.418;2023-06-10T09:55:00;42.50;25.70
36292;DHT22;22327;51.208;6.418;2023-06-10T09:58:01;42.30;25.40
36292;DHT22;22327;51.208;6.418;2023-06-10T10:01:11;41.30;25.70
36292;DHT22;22327;51.208;6.418;2023-06-10T10:04:12;40.30;27.20
36292;DHT22;22327;51.208;6.418;2023-06-10T10:07:13;39.70;28.10
36292;DHT22;22327;51.208;6.418;2023-06-10T10:10:16;39.10;27.80
36292;DHT22;22327;51.208;6.418;2023-06-10T10:13:17;38.00;28.50
36292;DHT22;22327;51.208;6.418;2023-06-10T10:16:37;37.00;30.30
36292;DHT22;22327;51.208;6.418;2023-06-10T10:19:47;36.40;31.70
36292;DHT22;22327;51.208;6.418;2023-06-10T10:22:49;36.10;32.20
36292;DHT22;22327;51.208;6.418;2023-06-10T10:25:52;35.50;32.80
36292;DHT22;22327;51.208;6.418;2023-06-10T10:29:05;35.20;32.90
36292;DHT22;22327;51.208;6.418;2023-06-10T10:32:08;34.90;33.40
36292;DHT22;22327;51.208;6.418;2023-06-10T10:35:19;34.40;33.60
36292;DHT22;22327;51.208;6.418;2023-06-10T10:38:22;34.20;34.40
36292;DHT22;22327;51.208;6.418;2023-06-10T10:41:24;33.90;35.40
36292;DHT22;22327;51.208;6.418;2023-06-10T10:44:26;33.60;34.90
36292;DHT22;22327;51.208;6.418;2023-06-10T10:47:27;33.30;36.20
36292;DHT22;22327;51.208;6.418;2023-06-10T10:50:29;33.20;35.70
36292;DHT22;22327;51.208;6.418;2023-06-10T10:53:36;33.00;37.20
36292;DHT22;22327;51.208;6.418;2023-06-10T10:56:37;32.90;36.80
36292;DHT22;22327;51.208;6.418;2023-06-10T10:59:59;32.90;36.20
36292;DHT22;22327;51.208;6.418;2023-06-10T11:06:12;32.90;36.10
36292;DHT22;22327;51.208;6.418;2023-06-10T11:09:26;32.90;36.30
36292;DHT22;22327;51.208;6.418;2023-06-10T11:15:50;32.70;34.50
36292;DHT22;22327;51.208;6.418;2023-06-10T11:18:53;32.60;33.70
36292;DHT22;22327;51.208;6.418;2023-06-10T11:21:58;32.50;33.30
36292;DHT22;22327;51.208;6.418;2023-06-10T11:25:02;32.50;33.80
36292;DHT22;22327;51.208;6.418;2023-06-10T11:28:21;32.50;33.70
36292;DHT22;22327;51.208;6.418;2023-06-10T11:31:49;32.50;32.50
36292;DHT22;22327;51.208;6.418;2023-06-10T11:34:53;32.40;32.80
36292;DHT22;22327;51.208;6.418;2023-06-10T11:37:54;32.60;33.90
36292;DHT22;22327;51.208;6.418;2023-06-10T11:40:55;32.70;33.30
36292;DHT22;22327;51.208;6.418;2023-06-10T11:44:18;32.80;33.90
36292;DHT22;22327;51.208;6.418;2023-06-10T11:47:18;32.90;33.40
36292;DHT22;22327;51.208;6.418;2023-06-10T11:50:28;32.90;33.60
36292;DHT22;22327;51.208;6.418;2023-06-10T11:53:29;32.90;33.30
36292;DHT22;22327;51.208;6.418;2023-06-10T11:56:31;32.80;34.20
36292;DHT22;22327;51.208;6.418;2023-06-10T11:59:32;33.00;34.00
36292;DHT22;22327;51.208;6.418;2023-06-10T12:02:33;33.10;33.70
36292;DHT22;22327;51.208;6.418;2023-06-10T12:05:33;33.10;33.70
36292;DHT22;22327;51.208;6.418;2023-06-10T12:08:41;33.30;33.40
36292;DHT22;22327;51.208;6.418;2023-06-10T12:11:43;33.20;33.50
36292;DHT22;22327;51.208;6.418;2023-06-10T12:15:00;33.10;34.10
36292;DHT22;22327;51.208;6.418;2023-06-10T12:18:03;33.10;33.60
36292;DHT22;22327;51.208;6.418;2023-06-10T12:21:18;33.10;33.80
36292;DHT22;22327;51.208;6.418;2023-06-10T12:24:20;33.30;34.50
36292;DHT22;22327;51.208;6.418;2023-06-10T12:27:21;33.60;33.80
36292;DHT22;22327;51.208;6.418;2023-06-10T12:30:24;33.70;33.70
36292;DHT22;22327;51.208;6.418;2023-06-10T12:33:24;33.70;33.30
36292;DHT22;22327;51.208;6.418;2023-06-10T12:36:25;33.90;33.80
36292;DHT22;22327;51.208;6.418;2023-06-10T12:39:26;34.10;33.40
36292;DHT22;22327;51.208;6.418;2023-06-10T12:42:26;34.10;33.50
36292;DHT22;22327;51.208;6.418;2023-06-10T12:48:30;33.60;34.40
36292;DHT22;22327;51.208;6.418;2023-06-10T12:51:30;33.30;34.00
36292;DHT22;22327;51.208;6.418;2023-06-10T12:54:31;33.30;34.40
36292;DHT22;22327;51.208;6.418;2023-06-10T12:57:31;33.30;34.40
36292;DHT22;22327;51.208;6.418;2023-06-10T13:00:32;33.30;35.00
36292;DHT22;22327;51.208;6.418;2023-06-10T13:03:35;33.50;34.10
36292;DHT22;22327;51.208;6.418;2023-06-10T13:06:35;33.70;35.00
36292;DHT22;22327;51.208;6.418;2023-06-10T13:09:39;33.80;34.00
36292;DHT22;22327;51.208;6.418;2023-06-10T13:12:40;33.90;34.80
36292;DHT22;22327;51.208;6.418;2023-06-10T13:15:41;33.70;34.70
36292;DHT22;22327;51.208;6.418;2023-06-10T13:18:42;33.60;36.60
36292;DHT22;22327;51.208;6.418;2023-06-10T13:21:43;33.20;37.30
36292;DHT22;22327;51.208;6.418;2023-06-10T13:24:43;33.00;38.50
36292;DHT22;22327;51.208;6.418;2023-06-10T13:27:44;32.60;39.30
36292;DHT22;22327;51.208;6.418;2023-06-10T13:30:44;32.50;38.50
36292;DHT22;22327;51.208;6.418;2023-06-10T13:33:45;32.20;38.70
36292;DHT22;22327;51.208;6.418;2023-06-10T13:36:45;32.30;38.30
36292;DHT22;22327;51.208;6.418;2023-06-10T13:39:46;32.40;38.10
36292;DHT22;22327;51.208;6.418;2023-06-10T13:42:51;32.50;37.30
36292;DHT22;22327;51.208;6.418;2023-06-10T13:45:52;32.70;37.80
36292;DHT22;22327;51.208;6.418;2023-06-10T13:48:53;33.00;36.70
36292;DHT22;22327;51.208;6.418;2023-06-10T13:51:53;33.30;35.90
36292;DHT22;22327;51.208;6.418;2023-06-10T13:54:54;33.60;36.40
36292;DHT22;22327;51.208;6.418;2023-06-10T13:57:54;33.80;35.70
36292;DHT22;22327;51.208;6.418;2023-06-10T14:00:55;33.80;35.40
36292;DHT22;22327;51.208;6.418;2023-06-10T14:03:56;33.70;35.50
36292;DHT22;22327;51.208;6.418;2023-06-10T14:06:57;33.70;35.30
36292;DHT22;22327;51.208;6.418;2023-06-10T14:09:57;33.60;34.30
36292;DHT22;22327;51.208;6.418;2023-06-10T14:12:59;33.60;36.20
36292;DHT22;22327;51.208;6.418;2023-06-10T14:16:00;33.60;35.10
36292;DHT22;22327;51.208;6.418;2023-06-10T14:19:03;33.60;35.40
36292;DHT22;22327;51.208;6.418;2023-06-10T14:22:03;33.60;35.20
36292;DHT22;22327;51.208;6.418;2023-06-10T14:25:04;33.50;35.50
36292;DHT22;22327;51.208;6.418;2023-06-10T14:28:05;33.40;35.40
36292;DHT22;22327;51.208;6.418;2023-06-10T14:31:05;33.40;34.70
36292;DHT22;22327;51.208;6.418;2023-06-10T14:34:07;33.40;35.10
36292;DHT22;22327;51.208;6.418;2023-06-10T14:37:08;33.30;34.20
36292;DHT22;22327;51.208;6.418;2023-06-10T14:40:09;33.30;33.80
36292;DHT22;22327;51.208;6.418;2023-06-10T14:43:10;33.40;34.00
36292;DHT22;22327;51.208;6.418;2023-06-10T14:46:10;33.50;34.90
36292;DHT22;22327;51.208;6.418;2023-06-10T14:49:11;33.60;35.10
36292;DHT22;22327;51.208;6.418;2023-06-10T14:52:11;33.60;34.90
36292;DHT22;22327;51.208;6.418;2023-06-10T14:55:12;33.50;34.90
36292;DHT22;22327;51.208;6.418;2023-06-10T14:58:13;33.50;34.50
36292;DHT22;22327;51.208;6.418;2023-06-10T15:01:13;33.30;34.60
36292;DHT22;22327;51.208;6.418;2023-06-10T15:04:14;33.30;35.10
36292;DHT22;22327;51.208;6.418;2023-06-10T15:07:14;33.30;34.90
36292;DHT22;22327;51.208;6.418;2023-06-10T15:10:15;33.40;35.40
36292;DHT22;22327;51.208;6.418;2023-06-10T15:13:16;33.50;35.80
36292;DHT22;22327;51.208;6.418;2023-06-10T15:16:16;33.70;35.60
36292;DHT22;22327;51.208;6.418;2023-06-10T15:19:17;33.90;34.00
36292;DHT22;22327;51.208;6.418;2023-06-10T15:22:18;34.20;34.60
36292;DHT22;22327;51.208;6.418;2023-06-10T15:25:18;34.30;34.40
36292;DHT22;22327;51.208;6.418;2023-06-10T15:28:19;34.30;34.60
36292;DHT22;22327;51.208;6.418;2023-06-10T15:31:19;34.10;34.20
36292;DHT22;22327;51.208;6.418;2023-06-10T15:34:20;33.70;35.10
36292;DHT22;22327;51.208;6.418;2023-06-10T15:37:20;33.60;35.90
36292;DHT22;22327;51.208;6.418;2023-06-10T15:40:23;33.40;35.60
36292;DHT22;22327;51.208;6.418;2023-06-10T15:43:24;33.40;36.20
36292;DHT22;22327;51.208;6.418;2023-06-10T15:46:26;33.40;36.90
36292;DHT22;22327;51.208;6.418;2023-06-10T15:49:26;33.40;37.00
36292;DHT22;22327;51.208;6.418;2023-06-10T15:52:27;33.40;36.90
36292;DHT22;22327;51.208;6.418;2023-06-10T15:55:27;33.30;37.80
36292;DHT22;22327;51.208;6.418;2023-06-10T15:58:29;33.30;37.20
36292;DHT22;22327;51.208;6.418;2023-06-10T16:01:30;33.20;37.30
36292;DHT22;22327;51.208;6.418;2023-06-10T16:04:30;33.10;37.30
36292;DHT22;22327;51.208;6.418;2023-06-10T16:07:31;33.10;37.50
36292;DHT22;22327;51.208;6.418;2023-06-10T16:10:31;33.10;37.90
36292;DHT22;22327;51.208;6.418;2023-06-10T16:13:32;33.00;38.00
36292;DHT22;22327;51.208;6.418;2023-06-10T16:16:32;33.00;38.20
36292;DHT22;22327;51.208;6.418;2023-06-10T16:19:33;32.90;38.50
36292;DHT22;22327;51.208;6.418;2023-06-10T16:22:33;33.00;39.10
36292;DHT22;22327;51.208;6.418;2023-06-10T16:25:34;33.00;38.90
36292;DHT22;22327;51.208;6.418;2023-06-10T16:28:34;32.90;39.10
36292;DHT22;22327;51.208;6.418;2023-06-10T16:31:35;32.80;39.30
36292;DHT22;22327;51.208;6.418;2023-06-10T16:34:36;32.70;38.90
36292;DHT22;22327;51.208;6.418;2023-06-10T16:37:36;32.60;39.30
36292;DHT22;22327;51.208;6.418;2023-06-10T16:40:37;32.50;39.50
36292;DHT22;22327;51.208;6.418;2023-06-10T16:43:37;32.40;39.80
36292;DHT22;22327;51.208;6.418;2023-06-10T16:46:38;32.40;40.30
36292;DHT22;22327;51.208;6.418;2023-06-10T16:49:38;32.30;39.90
36292;DHT22;22327;51.208;6.418;2023-06-10T16:52:38;32.20;40.10
36292;DHT22;22327;51.208;6.418;2023-06-10T16:55:39;32.10;40.10
36292;DHT22;22327;51.208;6.418;2023-06-10T16:58:41;32.00;39.70
36292;DHT22;22327;51.208;6.418;2023-06-10T17:01:42;32.00;38.90
36292;DHT22;22327;51.208;6.418;2023-06-10T17:04:42;31.90;38.20
36292;DHT22;22327;51.208;6.418;2023-06-10T17:07:43;31.80;38.70
36292;DHT22;22327;51.208;6.418;2023-06-10T17:10:43;31.80;38.90
36292;DHT22;22327;51.208;6.418;2023-06-10T17:13:44;31.80;38.60
36292;DHT22;22327;51.208;6.418;2023-06-10T17:16:45;31.80;38.40
36292;DHT22;22327;51.208;6.418;2023-06-10T17:19:45;31.80;38.40
36292;DHT22;22327;51.208;6.418;2023-06-10T17:22:46;31.70;38.70
36292;DHT22;22327;51.208;6.418;2023-06-10T17:25:46;31.60;38.60
36292;DHT22;22327;51.208;6.418;2023-06-10T17:28:47;31.50;38.70
36292;DHT22;22327;51.208;6.418;2023-06-10T17:31:47;31.50;38.70
36292;DHT22;22327;51.208;6.418;2023-06-10T17:34:48;31.40;38.90
36292;DHT22;22327;51.208;6.418;2023-06-10T17:37:48;31.40;39.00
36292;DHT22;22327;51.208;6.418;2023-06-10T17:40:49;31.30;39.20
36292;DHT22;22327;51.208;6.418;2023-06-10T17:43:50;31.20;39.30
36292;DHT22;22327;51.208;6.418;2023-06-10T17:46:51;31.10;39.40
36292;DHT22;22327;51.208;6.418;2023-06-10T17:49:51;31.00;39.80
36292;DHT22;22327;51.208;6.418;2023-06-10T17:52:52;31.00;40.40
36292;DHT22;22327;51.208;6.418;2023-06-10T17:55:52;30.80;39.90
36292;DHT22;22327;51.208;6.418;2023-06-10T17:58:53;30.80;40.20
36292;DHT22;22327;51.208;6.418;2023-06-10T18:01:53;30.70;40.30
36292;DHT22;22327;51.208;6.418;2023-06-10T18:04:54;30.60;40.40
36292;DHT22;22327;51.208;6.418;2023-06-10T18:07:55;30.60;40.40
36292;DHT22;22327;51.208;6.418;2023-06-10T18:10:55;30.60;40.50
36292;DHT22;22327;51.208;6.418;2023-06-10T18:13:56;30.50;41.00
36292;DHT22;22327;51.208;6.418;2023-06-10T18:16:56;30.40;41.00
36292;DHT22;22327;51.208;6.418;2023-06-10T18:19:57;30.40;41.20
36292;DHT22;22327;51.208;6.418;2023-06-10T18:22:58;30.40;41.30
36292;DHT22;22327;51.208;6.418;2023-06-10T18:25:58;30.30;41.50
36292;DHT22;22327;51.208;6.418;2023-06-10T18:28:59;30.20;41.70
36292;DHT22;22327;51.208;6.418;2023-06-10T18:31:59;30.20;41.70
36292;DHT22;22327;51.208;6.418;2023-06-10T18:35:01;30.20;41.90
36292;DHT22;22327;51.208;6.418;2023-06-10T18:38:01;30.20;41.90
36292;DHT22;22327;51.208;6.418;2023-06-10T18:41:02;30.10;42.20
36292;DHT22;22327;51.208;6.418;2023-06-10T18:44:02;30.10;42.20
36292;DHT22;22327;51.208;6.418;2023-06-10T18:47:03;30.10;42.30
36292;DHT22;22327;51.208;6.418;2023-06-10T18:50:04;30.10;42.40
36292;DHT22;22327;51.208;6.418;2023-06-10T18:53:05;30.00;42.40
36292;DHT22;22327;51.208;6.418;2023-06-10T18:56:05;30.00;42.80
36292;DHT22;22327;51.208;6.418;2023-06-10T18:59:06;30.00;43.00
36292;DHT22;22327;51.208;6.418;2023-06-10T19:02:06;30.00;43.20
36292;DHT22;22327;51.208;6.418;2023-06-10T19:05:08;29.80;43.20
36292;DHT22;22327;51.208;6.418;2023-06-10T19:08:09;29.80;43.30
36292;DHT22;22327;51.208;6.418;2023-06-10T19:11:10;29.80;43.70
36292;DHT22;22327;51.208;6.418;2023-06-10T19:14:12;29.70;43.70
36292;DHT22;22327;51.208;6.418;2023-06-10T19:17:13;29.60;44.00